Time;durP1;ratioP1;P1;durP2;ratioP2;P2;SDS_P1;SDS_P2;PMS_P1;PMS_P2;Temp;Humidity;BMP_temperature;BMP_pressure;BME280_temperature;BME280_humidity;BME280_pressure;Samples;Min_cycle;Max_cycle;Signal;HPM_P1;HPM_P2
2021/01/09 00:02:02;;;;;;;19.67;11.15;;;1.90;99.90;;;;;;4975551;28;20182;-86
2021/01/09 00:04:30;;;;;;;18.80;10.87;;;1.70;99.90;;;;;;4955550;29;20215;-86
2021/01/09 00:06:59;;;;;;;16.65;11.60;;;1.80;99.90;;;;;;4943507;28;20816;-86
2021/01/09 00:09:29;;;;;;;17.95;11.05;;;1.90;99.90;;;;;;4975781;28;20279;-86
2021/01/09 00:12:00;;;;;;;19.15;11.13;;;2.00;99.90;;;;;;4974685;28;20567;-87
2021/01/09 00:14:25;;;;;;;15.48;11.48;;;2.10;99.90;;;;;;4958961;28;20191;-87
2021/01/09 00:16:58;;;;;;;16.35;10.95;;;1.80;99.90;;;;;;4974655;28;20265;-86
2021/01/09 00:19:29;;;;;;;19.40;10.98;;;2.00;99.90;;;;;;4974579;28;20238;-86
2021/01/09 00:21:57;;;;;;;17.10;11.02;;;1.90;99.90;;;;;;4973692;28;20203;-86
2021/01/09 00:24:28;;;;;;;18.67;12.43;;;2.10;99.90;;;;;;4974789;28;20273;-86
2021/01/09 00:26:56;;;;;;;16.38;11.52;;;2.00;99.90;;;;;;4958294;28;20206;-87
2021/01/09 00:29:24;;;;;;;17.98;11.40;;;1.90;99.90;;;;;;4975089;28;20186;-86
2021/01/09 00:31:55;;;;;;;18.08;12.13;;;1.90;99.90;;;;;;4974164;28;20183;-86
2021/01/09 00:34:22;;;;;;;18.20;11.68;;;2.20;99.90;;;;;;4973997;28;20201;-85
2021/01/09 00:36:48;;;;;;;16.55;10.60;;;1.90;99.90;;;;;;4958786;28;20190;-86
2021/01/09 00:39:16;;;;;;;16.95;11.80;;;2.20;99.90;;;;;;4973975;28;20291;-86
2021/01/09 00:41:47;;;;;;;18.30;11.17;;;2.20;99.90;;;;;;4973764;28;20341;-85
2021/01/09 00:44:18;;;;;;;18.35;10.73;;;2.10;99.90;;;;;;4975008;28;20461;-86
2021/01/09 00:46:44;;;;;;;18.05;11.40;;;2.20;99.90;;;;;;4974694;28;20604;-86
2021/01/09 00:49:12;;;;;;;17.40;10.87;;;2.00;99.90;;;;;;4963428;28;20265;-86
2021/01/09 00:51:45;;;;;;;14.65;10.15;;;2.20;99.90;;;;;;4971401;28;20459;-86
2021/01/09 00:54:14;;;;;;;15.20;9.48;;;2.20;99.90;;;;;;4956534;28;20198;-86
2021/01/09 00:56:47;;;;;;;20.15;11.00;;;2.10;99.90;;;;;;4962807;28;20192;-86
2021/01/09 00:59:18;;;;;;;16.15;10.65;;;2.10;99.90;;;;;;4966724;28;20191;-85
2021/01/09 01:01:52;;;;;;;15.73;10.55;;;2.10;99.90;;;;;;5005232;28;20578;-87
2021/01/09 01:04:21;;;;;;;15.55;11.05;;;2.00;99.90;;;;;;4974861;28;20265;-86
2021/01/09 01:06:49;;;;;;;15.00;10.38;;;2.00;99.90;;;;;;4973737;28;20233;-85
2021/01/09 01:09:18;;;;;;;16.08;10.68;;;2.10;99.90;;;;;;4973768;28;20183;-86
2021/01/09 01:11:47;;;;;;;18.10;11.52;;;2.10;99.90;;;;;;4974079;28;20179;-85
2021/01/09 01:14:18;;;;;;;17.25;11.40;;;2.20;99.90;;;;;;4974004;28;20203;-85
2021/01/09 01:16:50;;;;;;;14.02;10.20;;;2.00;99.90;;;;;;4973110;28;20196;-86
2021/01/09 01:19:19;;;;;;;15.30;10.35;;;2.10;99.90;;;;;;4973970;28;20183;-86
2021/01/09 01:21:49;;;;;;;14.07;10.20;;;2.10;99.90;;;;;;4973595;28;20766;-86
2021/01/09 01:24:22;;;;;;;12.77;9.20;;;2.20;99.90;;;;;;4973619;28;20644;-85
2021/01/09 01:26:52;;;;;;;15.45;9.93;;;2.10;99.90;;;;;;4974377;28;20262;-86
2021/01/09 01:29:26;;;;;;;15.63;9.45;;;2.00;99.90;;;;;;4974676;28;20249;-85
2021/01/09 01:31:57;;;;;;;14.00;10.48;;;2.00;99.90;;;;;;4962803;28;20209;-86
2021/01/09 01:34:25;;;;;;;15.38;9.85;;;2.10;99.90;;;;;;4966204;28;20185;-85
2021/01/09 01:36:58;;;;;;;12.50;9.40;;;2.20;99.90;;;;;;4968857;28;20562;-86
2021/01/09 01:39:24;;;;;;;13.57;10.23;;;2.10;99.90;;;;;;4974297;28;20527;-85
2021/01/09 01:41:57;;;;;;;15.07;9.73;;;2.20;99.90;;;;;;4954124;29;20622;-86
2021/01/09 01:44:31;;;;;;;19.75;10.75;;;2.30;99.90;;;;;;4955451;29;20200;-86
2021/01/09 01:46:58;;;;;;;15.70;10.48;;;2.30;99.90;;;;;;4970892;28;20172;-86
2021/01/09 01:49:28;;;;;;;15.95;10.25;;;2.30;99.90;;;;;;4962650;28;20193;-86
2021/01/09 01:51:59;;;;;;;15.80;10.13;;;2.00;99.90;;;;;;4973720;28;20523;-84
2021/01/09 01:54:30;;;;;;;17.27;10.65;;;2.00;99.90;;;;;;4977877;28;20622;-85
2021/01/09 01:56:58;;;;;;;30.43;10.93;;;2.30;99.90;;;;;;4976686;28;20267;-86
2021/01/09 01:59:26;;;;;;;17.38;9.82;;;2.20;99.90;;;;;;4961009;28;20462;-86
2021/01/09 02:01:55;;;;;;;15.73;10.43;;;2.00;99.90;;;;;;4977737;28;20198;-86
2021/01/09 02:04:23;;;;;;;16.50;10.35;;;2.10;99.90;;;;;;4976864;28;20519;-85
2021/01/09 02:06:55;;;;;;;15.45;10.60;;;2.10;99.90;;;;;;4983056;28;20194;-86
2021/01/09 02:09:24;;;;;;;14.98;10.32;;;2.20;99.90;;;;;;4976859;28;20191;-87
2021/01/09 02:11:59;;;;;;;14.73;10.18;;;2.20;99.90;;;;;;4953991;28;20203;-85
2021/01/09 02:14:43;;;;;;;15.95;11.23;;;2.30;99.90;;;;;;4961157;28;20191;-85
2021/01/09 02:17:10;;;;;;;14.77;9.80;;;2.20;99.90;;;;;;4977876;28;20191;-87
2021/01/09 02:19:42;;;;;;;13.88;9.05;;;2.10;99.90;;;;;;4975228;28;20199;-86
2021/01/09 02:22:15;;;;;;;14.77;10.27;;;2.00;99.90;;;;;;4961287;28;20691;-86
2021/01/09 02:24:47;;;;;;;13.68;10.32;;;2.10;99.90;;;;;;4966865;28;20212;-85
2021/01/09 02:27:18;;;;;;;16.98;10.75;;;2.10;99.90;;;;;;4957915;28;20176;-85
2021/01/09 02:29:54;;;;;;;14.38;9.82;;;2.10;99.90;;;;;;4977174;28;20274;-85
2021/01/09 02:32:29;;;;;;;14.60;10.73;;;2.20;99.90;;;;;;4974780;28;20732;-85
2021/01/09 02:35:00;;;;;;;13.30;9.85;;;1.90;99.90;;;;;;4979367;28;20248;-86
2021/01/09 02:37:29;;;;;;;17.55;11.15;;;1.90;99.90;;;;;;4984235;28;20175;-85
2021/01/09 02:39:56;;;;;;;17.77;10.25;;;1.80;99.90;;;;;;4975564;28;20215;-85
2021/01/09 02:42:27;;;;;;;16.88;11.77;;;1.90;99.90;;;;;;4976196;28;20197;-85
2021/01/09 02:45:00;;;;;;;17.15;11.68;;;2.20;99.90;;;;;;4959694;28;20550;-86
2021/01/09 02:47:31;;;;;;;16.02;10.95;;;2.10;99.90;;;;;;4975286;28;20190;-86
2021/01/09 02:50:04;;;;;;;18.27;11.65;;;2.10;99.90;;;;;;4975353;28;20637;-86
2021/01/09 02:52:34;;;;;;;15.25;11.40;;;2.10;99.90;;;;;;4975312;28;20183;-85
2021/01/09 02:55:02;;;;;;;13.63;9.88;;;2.00;99.90;;;;;;4976592;28;20679;-85
2021/01/09 02:57:32;;;;;;;14.40;10.10;;;2.10;99.90;;;;;;4975987;28;20187;-86
2021/01/09 03:00:04;;;;;;;15.98;10.05;;;2.00;99.90;;;;;;4974821;28;20227;-84
2021/01/09 03:02:32;;;;;;;14.98;11.00;;;1.90;99.90;;;;;;4956077;28;20176;-86
2021/01/09 03:05:03;;;;;;;16.15;11.00;;;2.00;99.90;;;;;;4949117;28;20667;-86
2021/01/09 03:07:31;;;;;;;19.73;13.85;;;1.90;99.90;;;;;;4971568;28;20175;-85
2021/01/09 03:09:57;;;;;;;19.73;12.63;;;1.70;99.90;;;;;;4961305;28;20263;-85
2021/01/09 03:12:25;;;;;;;19.48;12.27;;;1.70;99.90;;;;;;4960205;28;20197;-86
2021/01/09 03:14:54;;;;;;;18.70;11.80;;;1.80;99.90;;;;;;4976618;28;20191;-86
2021/01/09 03:17:19;;;;;;;22.40;12.47;;;1.70;99.90;;;;;;4976873;28;20202;-86
2021/01/09 03:19:45;;;;;;;16.13;10.63;;;1.90;99.90;;;;;;4959526;28;20912;-86
2021/01/09 03:22:15;;;;;;;18.80;10.90;;;1.90;99.90;;;;;;4983208;28;20433;-86
2021/01/09 03:24:43;;;;;;;17.88;11.48;;;1.70;99.90;;;;;;4996209;28;20457;-87
2021/01/09 03:27:14;;;;;;;15.27;10.13;;;1.70;99.90;;;;;;4975476;28;20168;-87
2021/01/09 03:29:45;;;;;;;22.27;10.50;;;1.80;99.90;;;;;;4973208;28;20187;-85
2021/01/09 03:32:14;;;;;;;15.75;9.60;;;1.90;99.90;;;;;;4958611;28;20184;-87
2021/01/09 03:34:42;;;;;;;13.10;9.07;;;1.70;99.90;;;;;;4969496;28;20195;-86
2021/01/09 03:37:10;;;;;;;16.10;10.02;;;1.80;99.90;;;;;;4964729;28;20790;-86
2021/01/09 03:39:40;;;;;;;13.05;8.85;;;1.90;99.90;;;;;;4975744;28;20294;-86
2021/01/09 03:42:09;;;;;;;13.27;8.80;;;1.60;99.90;;;;;;4976454;28;20167;-85
2021/01/09 03:44:37;;;;;;;15.80;9.73;;;1.80;99.90;;;;;;4974933;28;20207;-85
2021/01/09 03:47:05;;;;;;;13.32;9.07;;;1.80;99.90;;;;;;4962450;28;20199;-87
2021/01/09 03:49:31;;;;;;;13.63;8.82;;;1.80;99.90;;;;;;4956787;28;20176;-86
2021/01/09 03:51:59;;;;;;;13.33;10.53;;;1.50;99.90;;;;;;4969720;28;20834;-87
2021/01/09 03:54:30;;;;;;;15.55;10.57;;;1.60;99.90;;;;;;4976282;28;20458;-87
2021/01/09 03:57:03;;;;;;;16.67;9.40;;;1.60;99.90;;;;;;4960462;28;20241;-87
2021/01/09 03:59:29;;;;;;;18.25;11.25;;;1.70;99.90;;;;;;4976384;28;20306;-87
2021/01/09 04:02:00;;;;;;;17.42;11.07;;;1.60;99.90;;;;;;4975595;28;20262;-88
2021/01/09 04:04:31;;;;;;;19.60;12.05;;;1.80;99.90;;;;;;4935410;29;20208;-88
2021/01/09 04:07:02;;;;;;;18.60;12.00;;;1.50;99.90;;;;;;4963454;28;20195;-87
2021/01/09 04:09:28;;;;;;;17.23;11.10;;;1.50;99.90;;;;;;4975575;28;20217;-88
2021/01/09 04:11:54;;;;;;;14.13;11.38;;;1.50;99.90;;;;;;4976402;28;20176;-87
2021/01/09 04:14:27;;;;;;;16.90;10.80;;;1.60;99.90;;;;;;4974527;28;20533;-87
2021/01/09 04:17:00;;;;;;;18.77;11.05;;;1.30;99.90;;;;;;4976530;28;20636;-87
2021/01/09 04:19:28;;;;;;;19.02;11.90;;;1.60;99.90;;;;;;4974995;28;20183;-87
2021/01/09 04:21:54;;;;;;;18.33;10.88;;;1.60;99.90;;;;;;4967371;28;20261;-87
2021/01/09 04:24:27;;;;;;;18.83;10.95;;;1.60;99.90;;;;;;4975880;28;20207;-87
2021/01/09 04:27:01;;;;;;;14.73;9.90;;;1.60;99.90;;;;;;4975665;28;20191;-87
2021/01/09 04:29:34;;;;;;;16.60;11.10;;;1.60;99.90;;;;;;4969854;28;20168;-87
2021/01/09 04:32:03;;;;;;;17.88;11.80;;;1.70;99.90;;;;;;4975017;28;20227;-86
2021/01/09 04:34:33;;;;;;;16.05;11.10;;;1.60;99.90;;;;;;4968873;28;20267;-87
2021/01/09 04:37:01;;;;;;;16.63;11.73;;;1.50;99.90;;;;;;4982341;28;20506;-87
2021/01/09 04:39:27;;;;;;;18.10;12.13;;;1.50;99.90;;;;;;4970880;28;20179;-87
2021/01/09 04:41:58;;;;;;;16.60;10.23;;;1.60;99.90;;;;;;4959655;28;20183;-87
2021/01/09 04:44:28;;;;;;;17.30;11.07;;;1.80;99.90;;;;;;4973327;28;20213;-87
2021/01/09 04:46:56;;;;;;;18.55;12.02;;;1.90;99.90;;;;;;4975143;28;20183;-87
2021/01/09 04:49:26;;;;;;;19.08;11.65;;;1.80;99.90;;;;;;4973374;28;20203;-87
2021/01/09 04:51:58;;;;;;;16.63;10.73;;;1.60;99.90;;;;;;4980298;28;20225;-87
2021/01/09 04:54:34;;;;;;;19.25;10.63;;;1.80;99.90;;;;;;4975352;28;20203;-86
2021/01/09 04:57:03;;;;;;;16.88;10.70;;;2.00;99.90;;;;;;4958886;28;20274;-87
2021/01/09 04:59:34;;;;;;;18.13;10.95;;;2.10;99.90;;;;;;4942309;28;20215;-87
2021/01/09 05:02:03;;;;;;;18.90;11.93;;;1.80;99.90;;;;;;4955218;29;20195;-88
2021/01/09 05:04:34;;;;;;;19.20;11.35;;;1.90;99.90;;;;;;4956966;28;20207;-87
2021/01/09 05:07:02;;;;;;;18.23;11.95;;;2.20;99.90;;;;;;4982649;28;20201;-87
2021/01/09 05:09:33;;;;;;;16.48;10.80;;;2.00;99.90;;;;;;4975297;28;20496;-86
2021/01/09 05:11:59;;;;;;;21.80;11.40;;;2.20;99.90;;;;;;4958554;28;20175;-87
2021/01/09 05:14:27;;;;;;;16.80;10.53;;;2.00;99.90;;;;;;4974171;28;20423;-86
2021/01/09 05:16:59;;;;;;;14.93;10.05;;;1.90;99.90;;;;;;4958035;28;20995;-86
2021/01/09 05:19:31;;;;;;;17.98;11.52;;;2.30;99.90;;;;;;4975090;28;20197;-85
2021/01/09 05:22:03;;;;;;;18.70;11.68;;;2.00;99.90;;;;;;4952733;29;20199;-86
2021/01/09 05:24:35;;;;;;;18.35;10.55;;;2.30;99.90;;;;;;4971782;28;20222;-87
2021/01/09 05:27:02;;;;;;;18.00;11.93;;;2.10;99.90;;;;;;4961213;28;20289;-87
2021/01/09 05:29:34;;;;;;;21.50;12.40;;;2.20;99.90;;;;;;4961880;28;20190;-86
2021/01/09 05:32:04;;;;;;;28.90;13.18;;;2.20;99.90;;;;;;4978394;28;20241;-87
2021/01/09 05:34:45;;;;;;;23.00;13.30;;;2.30;99.90;;;;;;4978425;28;20591;-86
2021/01/09 05:37:27;;;;;;;26.08;14.60;;;2.50;99.90;;;;;;4982597;28;20187;-86
2021/01/09 05:39:58;;;;;;;19.48;12.23;;;2.20;99.90;;;;;;4958371;28;20180;-86
2021/01/09 05:42:30;;;;;;;23.92;12.95;;;2.20;99.90;;;;;;4973666;28;20217;-85
2021/01/09 05:44:59;;;;;;;23.77;12.88;;;2.40;99.90;;;;;;4957776;29;20305;-86
2021/01/09 05:47:30;;;;;;;26.52;12.93;;;2.30;99.90;;;;;;4976439;28;20621;-86
2021/01/09 05:50:03;;;;;;;26.92;14.27;;;2.40;99.90;;;;;;4993363;28;20748;-86
2021/01/09 05:52:38;;;;;;;30.05;14.27;;;2.20;99.90;;;;;;4959507;28;20180;-86
2021/01/09 05:55:08;;;;;;;26.77;14.35;;;2.40;99.90;;;;;;4969514;28;20179;-87
2021/01/09 05:57:36;;;;;;;29.42;13.40;;;2.40;99.90;;;;;;4977728;28;20194;-85
2021/01/09 06:00:10;;;;;;;28.65;14.80;;;2.20;99.90;;;;;;4977557;28;20707;-85
2021/01/09 06:02:48;;;;;;;26.38;12.77;;;2.40;99.90;;;;;;4961477;28;20188;-85
2021/01/09 06:05:20;;;;;;;36.13;13.57;;;2.30;99.90;;;;;;4956401;29;20227;-85
2021/01/09 06:07:52;;;;;;;31.27;13.05;;;2.20;99.90;;;;;;4941734;29;20611;-84
2021/01/09 06:10:21;;;;;;;27.83;14.23;;;2.30;99.90;;;;;;4975578;28;20242;-86
2021/01/09 06:13:02;;;;;;;29.08;15.02;;;2.40;99.90;;;;;;4961416;28;20192;-86
2021/01/09 06:15:34;;;;;;;27.67;15.02;;;2.40;99.90;;;;;;4964490;28;20187;-86
2021/01/09 06:18:06;;;;;;;26.25;13.43;;;2.30;99.90;;;;;;4960886;28;20196;-86
2021/01/09 06:20:35;;;;;;;25.75;12.80;;;2.30;99.90;;;;;;4976549;28;20191;-85
2021/01/09 06:23:02;;;;;;;26.85;14.10;;;2.40;99.90;;;;;;4973632;28;20210;-86
2021/01/09 06:25:36;;;;;;;20.65;12.43;;;2.30;99.90;;;;;;4960453;28;20290;-85
2021/01/09 06:28:12;;;;;;;31.00;13.60;;;2.30;99.90;;;;;;4976144;28;20190;-85
2021/01/09 06:30:40;;;;;;;27.23;13.05;;;2.20;99.90;;;;;;4960887;28;20217;-85
2021/01/09 06:33:19;;;;;;;29.08;14.20;;;2.50;99.90;;;;;;4959977;28;20640;-85
2021/01/09 06:35:54;;;;;;;29.27;14.60;;;2.30;99.90;;;;;;4976352;28;20526;-85
2021/01/09 06:38:23;;;;;;;31.25;14.32;;;2.30;99.90;;;;;;4990212;28;20274;-86
2021/01/09 06:40:57;;;;;;;25.35;13.23;;;2.30;99.90;;;;;;4976032;28;20596;-85
2021/01/09 06:43:27;;;;;;;32.13;13.85;;;2.60;99.90;;;;;;4970534;28;20187;-86
2021/01/09 06:45:57;;;;;;;32.75;14.75;;;2.40;99.90;;;;;;4959823;28;20661;-84
2021/01/09 06:48:33;;;;;;;29.95;14.13;;;2.30;99.90;;;;;;4960127;28;20193;-85
2021/01/09 06:50:59;;;;;;;29.40;13.52;;;2.40;99.90;;;;;;4959898;28;20184;-85
2021/01/09 06:53:27;;;;;;;27.53;14.27;;;2.20;99.90;;;;;;4963530;28;20175;-85
2021/01/09 06:56:00;;;;;;;32.92;13.95;;;2.40;99.90;;;;;;4976462;28;20442;-85
2021/01/09 06:58:35;;;;;;;37.30;13.38;;;2.30;99.90;;;;;;4976334;28;20180;-85
2021/01/09 07:01:20;;;;;;;33.28;14.98;;;2.40;99.90;;;;;;4975468;28;20227;-85
2021/01/09 07:03:48;;;;;;;36.80;14.95;;;2.20;99.90;;;;;;4976409;28;20223;-86
2021/01/09 07:07:08;;;;;;;33.78;16.50;;;2.20;99.90;;;;;;4977629;28;20587;-85
2021/01/09 07:09:42;;;;;;;31.45;14.45;;;2.30;99.90;;;;;;4952846;29;20195;-86
2021/01/09 07:12:11;;;;;;;39.45;16.20;;;2.20;99.90;;;;;;4963602;28;20183;-85
2021/01/09 07:14:37;;;;;;;31.23;14.80;;;2.30;99.90;;;;;;4975607;28;20218;-86
2021/01/09 07:17:14;;;;;;;23.35;15.35;;;2.30;99.90;;;;;;4959865;28;20191;-86
2021/01/09 07:19:45;;;;;;;32.45;15.35;;;2.20;99.90;;;;;;4974889;28;20827;-84
2021/01/09 07:22:20;;;;;;;35.30;14.88;;;2.40;99.90;;;;;;4975787;28;20229;-85
2021/01/09 07:24:52;;;;;;;35.90;16.10;;;2.50;99.90;;;;;;4955858;29;20200;-85
2021/01/09 07:27:22;;;;;;;35.17;14.68;;;2.40;99.90;;;;;;4963502;28;20254;-84
2021/01/09 07:29:56;;;;;;;39.30;15.43;;;2.50;99.90;;;;;;4975244;28;20183;-85
2021/01/09 07:32:45;;;;;;;37.30;15.68;;;2.50;99.90;;;;;;4975523;28;20190;-84
2021/01/09 07:35:20;;;;;;;38.97;15.38;;;2.40;99.90;;;;;;4975636;28;20226;-85
2021/01/09 07:37:52;;;;;;;29.65;15.75;;;2.30;99.90;;;;;;4959563;28;20200;-86
2021/01/09 07:40:21;;;;;;;32.00;14.52;;;2.20;99.90;;;;;;4959254;28;20304;-85
2021/01/09 07:42:52;;;;;;;39.88;16.27;;;2.30;99.90;;;;;;4943814;28;20195;-85
2021/01/09 07:45:34;;;;;;;37.45;15.38;;;1.70;99.90;;;;;;4958488;28;20652;-85
2021/01/09 07:48:21;;;;;;;41.78;17.55;;;2.30;99.90;;;;;;4975722;28;20716;-85
2021/01/09 07:50:49;;;;;;;48.75;16.85;;;2.20;99.90;;;;;;4974459;28;20202;-85
2021/01/09 07:53:28;;;;;;;50.20;18.23;;;2.30;99.90;;;;;;4975101;28;20191;-85
2021/01/09 07:55:58;;;;;;;51.92;16.50;;;2.20;99.90;;;;;;4974582;28;20171;-85
2021/01/09 07:58:45;;;;;;;53.53;17.38;;;2.30;99.90;;;;;;4974762;28;20202;-84
2021/01/09 08:01:12;;;;;;;46.70;17.25;;;2.20;99.90;;;;;;4958087;28;20233;-85
2021/01/09 08:03:39;;;;;;;34.00;16.50;;;2.60;99.90;;;;;;4974601;28;20737;-85
2021/01/09 08:06:09;;;;;;;53.88;17.45;;;2.50;99.90;;;;;;4976016;28;20176;-84
2021/01/09 08:08:38;;;;;;;44.97;17.10;;;2.20;99.90;;;;;;4994662;28;20194;-85
2021/01/09 08:11:08;;;;;;;50.28;17.02;;;2.40;99.90;;;;;;4962938;28;20262;-85
2021/01/09 08:13:39;;;;;;;49.47;17.20;;;2.20;99.90;;;;;;4989302;28;20190;-85
2021/01/09 08:16:10;;;;;;;49.55;18.63;;;2.30;99.90;;;;;;4981397;28;20190;-84
2021/01/09 08:18:40;;;;;;;62.85;18.67;;;2.50;99.90;;;;;;4969724;28;20649;-84
2021/01/09 08:21:11;;;;;;;62.08;18.90;;;2.40;99.90;;;;;;4974276;28;20604;-85
2021/01/09 08:23:53;;;;;;;50.95;19.55;;;2.40;99.90;;;;;;4969090;28;20274;-84
2021/01/09 08:26:21;;;;;;;58.97;22.33;;;2.60;99.90;;;;;;4958157;28;20179;-85
2021/01/09 08:28:49;;;;;;;61.30;22.55;;;2.00;99.90;;;;;;4957791;28;20725;-83
2021/01/09 08:31:19;;;;;;;58.00;22.85;;;2.40;99.90;;;;;;4974195;28;20559;-84
2021/01/09 08:33:48;;;;;;;77.68;24.30;;;2.30;99.90;;;;;;4974721;28;20191;-84
2021/01/09 08:36:20;;;;;;;66.28;24.50;;;2.40;99.90;;;;;;4959931;28;20505;-84
2021/01/09 08:38:55;;;;;;;85.40;27.80;;;2.60;99.90;;;;;;4987776;28;20175;-84
2021/01/09 08:41:38;;;;;;;62.45;27.65;;;2.50;99.90;;;;;;4974297;28;20233;-84
2021/01/09 08:44:09;;;;;;;60.22;24.45;;;2.40;99.90;;;;;;4962112;28;20217;-84
2021/01/09 08:46:36;;;;;;;66.72;25.35;;;2.50;99.90;;;;;;4973782;28;20229;-84
2021/01/09 08:49:06;;;;;;;62.30;25.33;;;2.50;99.90;;;;;;4958055;28;20187;-84
2021/01/09 08:51:36;;;;;;;78.28;28.15;;;2.40;99.90;;;;;;4972508;28;20319;-84
2021/01/09 08:54:10;;;;;;;73.85;26.25;;;2.40;99.90;;;;;;4973829;28;20207;-84
2021/01/09 08:56:44;;;;;;;73.25;25.45;;;2.60;99.90;;;;;;4973613;28;20198;-85
2021/01/09 08:59:12;;;;;;;66.78;19.90;;;2.70;99.90;;;;;;4973504;28;20183;-84
2021/01/09 09:01:49;;;;;;;66.53;19.77;;;2.70;99.90;;;;;;4975734;28;20206;-84
2021/01/09 09:04:21;;;;;;;56.42;19.88;;;2.50;99.90;;;;;;4977684;28;20826;-83
2021/01/09 09:07:00;;;;;;;62.40;18.23;;;2.70;99.90;;;;;;4984582;28;20178;-83
2021/01/09 09:09:33;;;;;;;47.25;17.02;;;2.60;99.90;;;;;;4990323;28;20182;-84
2021/01/09 09:12:00;;;;;;;60.00;18.58;;;2.60;99.90;;;;;;4979270;28;20218;-85
2021/01/09 09:14:28;;;;;;;64.78;19.42;;;2.80;99.90;;;;;;4937027;29;20200;-84
2021/01/09 09:17:00;;;;;;;69.18;18.63;;;2.60;99.90;;;;;;4955145;29;20701;-83
2021/01/09 09:19:37;;;;;;;72.22;19.27;;;2.60;99.90;;;;;;4959090;28;20745;-84
2021/01/09 09:22:04;;;;;;;82.03;22.98;;;2.80;99.90;;;;;;4975627;28;20560;-85
2021/01/09 09:24:43;;;;;;;76.72;22.70;;;2.30;99.90;;;;;;4958969;28;20203;-84
2021/01/09 09:27:28;;;;;;;70.50;23.05;;;2.50;99.90;;;;;;4975404;28;20180;-84
2021/01/09 09:30:14;;;;;;;94.00;26.23;;;2.70;99.90;;;;;;4942369;28;20183;-85
2021/01/09 09:32:48;;;;;;;65.25;21.77;;;2.60;99.90;;;;;;4959334;28;20187;-84
2021/01/09 09:35:31;;;;;;;74.25;23.88;;;2.50;99.90;;;;;;4959542;28;20178;-84
2021/01/09 09:38:00;;;;;;;82.60;25.02;;;2.50;99.90;;;;;;4986423;28;20202;-84
2021/01/09 09:40:28;;;;;;;77.28;24.80;;;2.50;99.90;;;;;;4974899;28;20183;-83
2021/01/09 09:43:19;;;;;;;67.95;21.10;;;2.80;99.90;;;;;;4984386;28;20198;-84
2021/01/09 09:46:04;;;;;;;72.05;23.88;;;2.70;99.90;;;;;;4952587;28;20551;-84
2021/01/09 09:48:37;;;;;;;68.53;22.13;;;2.60;99.90;;;;;;4968583;28;20199;-85
2021/01/09 09:51:12;;;;;;;62.10;19.98;;;2.60;99.90;;;;;;4971861;28;20257;-83
2021/01/09 09:53:42;;;;;;;63.13;20.83;;;2.80;99.90;;;;;;4955577;28;20183;-84
2021/01/09 09:56:21;;;;;;;69.55;19.90;;;2.80;99.90;;;;;;4974442;28;20831;-85
2021/01/09 09:59:01;;;;;;;58.13;21.35;;;2.90;99.90;;;;;;4973275;28;20183;-84
2021/01/09 10:01:30;;;;;;;58.03;21.73;;;2.80;99.90;;;;;;4958927;28;20214;-84
2021/01/09 10:04:00;;;;;;;63.92;20.90;;;2.60;99.90;;;;;;4963894;28;20219;-84
2021/01/09 10:06:39;;;;;;;64.20;20.17;;;2.60;99.90;;;;;;4974192;28;20208;-84
2021/01/09 10:09:12;;;;;;;54.08;21.85;;;2.80;99.90;;;;;;4958626;28;20164;-85
2021/01/09 10:11:39;;;;;;;58.85;21.05;;;2.90;99.90;;;;;;4976090;28;20195;-84
2021/01/09 10:14:07;;;;;;;57.75;20.02;;;2.70;99.90;;;;;;4950784;28;20245;-84
2021/01/09 10:16:38;;;;;;;56.38;20.73;;;2.80;99.90;;;;;;4943894;28;20206;-85
2021/01/09 10:19:09;;;;;;;63.75;23.48;;;2.70;99.90;;;;;;4960218;28;20576;-84
2021/01/09 10:21:38;;;;;;;56.75;22.63;;;2.60;99.90;;;;;;4940890;29;20183;-84
2021/01/09 10:24:07;;;;;;;48.67;21.92;;;2.90;99.90;;;;;;4959739;28;20235;-83
2021/01/09 10:26:37;;;;;;;52.08;21.63;;;2.80;99.90;;;;;;4976123;28;20186;-85
2021/01/09 10:29:08;;;;;;;51.55;19.80;;;2.80;99.90;;;;;;4977198;28;20783;-84
2021/01/09 10:31:38;;;;;;;51.80;20.88;;;2.80;99.90;;;;;;4963356;28;20184;-85
2021/01/09 10:34:14;;;;;;;42.10;19.77;;;2.90;99.90;;;;;;4970381;28;20202;-85
2021/01/09 10:36:40;;;;;;;50.72;20.73;;;3.00;99.90;;;;;;4972799;28;20194;-86
2021/01/09 10:39:07;;;;;;;65.45;21.70;;;2.80;99.90;;;;;;4970832;28;20184;-86
2021/01/09 10:41:37;;;;;;;69.18;20.75;;;2.90;99.90;;;;;;4956957;29;20226;-85
2021/01/09 10:44:09;;;;;;;53.40;19.90;;;2.90;99.90;;;;;;4976898;28;20302;-87
2021/01/09 10:46:44;;;;;;;54.65;21.95;;;2.90;99.90;;;;;;4978235;28;20183;-87
2021/01/09 10:49:10;;;;;;;56.72;20.08;;;3.10;99.90;;;;;;4977832;28;20179;-85
2021/01/09 10:51:38;;;;;;;55.08;20.80;;;2.70;99.90;;;;;;4961079;28;20566;-87
2021/01/09 10:54:11;;;;;;;59.00;21.83;;;3.20;99.90;;;;;;4976155;28;20191;-85
2021/01/09 10:56:47;;;;;;;61.08;22.23;;;3.30;99.90;;;;;;4976344;28;20179;-86
2021/01/09 10:59:13;;;;;;;66.45;23.77;;;3.30;99.90;;;;;;4976446;28;20195;-86
2021/01/09 11:01:47;;;;;;;64.13;24.70;;;3.40;99.90;;;;;;4974122;28;20183;-86
2021/01/09 11:04:13;;;;;;;59.55;24.35;;;3.20;99.90;;;;;;4952600;28;20286;-86
2021/01/09 11:06:38;;;;;;;65.30;24.33;;;3.20;99.90;;;;;;4971132;28;20294;-86
2021/01/09 11:09:07;;;;;;;56.50;24.63;;;3.40;99.90;;;;;;4986543;28;20478;-85
2021/01/09 11:11:33;;;;;;;59.00;24.85;;;3.50;99.90;;;;;;4968455;28;20513;-85
2021/01/09 11:13:59;;;;;;;60.60;25.37;;;3.40;99.90;;;;;;4969904;28;20271;-86
2021/01/09 11:16:25;;;;;;;86.00;35.43;;;3.20;99.90;;;;;;4976946;28;20835;-87
2021/01/09 11:18:52;;;;;;;59.95;26.15;;;3.40;99.90;;;;;;4976855;28;20422;-87
2021/01/09 11:21:19;;;;;;;68.68;24.08;;;3.30;99.90;;;;;;4976453;28;20578;-85
2021/01/09 11:23:45;;;;;;;46.13;20.10;;;3.20;99.90;;;;;;4974877;28;20505;-85
2021/01/09 11:26:12;;;;;;;49.80;22.60;;;3.50;99.90;;;;;;4972354;28;20246;-86
2021/01/09 11:28:38;;;;;;;54.63;21.60;;;3.20;99.90;;;;;;4975710;28;20183;-86
2021/01/09 11:31:10;;;;;;;59.00;27.05;;;2.80;99.90;;;;;;4943182;28;20669;-86
2021/01/09 11:33:38;;;;;;;53.35;23.15;;;3.20;99.90;;;;;;4975868;28;20184;-87
2021/01/09 11:36:08;;;;;;;50.22;21.60;;;3.10;99.90;;;;;;4959059;28;20278;-86
2021/01/09 11:38:37;;;;;;;49.33;20.75;;;3.20;99.90;;;;;;4960573;28;20518;-86
2021/01/09 11:41:03;;;;;;;40.25;18.50;;;3.10;99.90;;;;;;4962470;28;20198;-86
2021/01/09 11:43:31;;;;;;;39.88;17.95;;;3.20;99.90;;;;;;4955949;28;20184;-86
2021/01/09 11:45:57;;;;;;;40.47;19.57;;;3.20;99.90;;;;;;4964592;28;20226;-86
2021/01/09 11:48:27;;;;;;;40.47;17.90;;;3.30;99.90;;;;;;4927243;28;20450;-87
2021/01/09 11:50:55;;;;;;;34.05;16.95;;;3.10;99.90;;;;;;4956070;28;20192;-86
2021/01/09 11:53:21;;;;;;;41.30;17.50;;;3.30;99.90;;;;;;4955688;28;20180;-86
2021/01/09 11:55:50;;;;;;;31.77;16.05;;;3.00;99.90;;;;;;4951461;28;20490;-86
2021/01/09 11:58:19;;;;;;;30.15;15.43;;;3.00;99.90;;;;;;4974966;28;20191;-86
2021/01/09 12:00:46;;;;;;;27.52;16.17;;;3.10;99.90;;;;;;4974762;28;20223;-86
2021/01/09 12:03:15;;;;;;;23.08;14.77;;;2.90;99.90;;;;;;4974794;28;20187;-86
2021/01/09 12:05:46;;;;;;;29.25;16.85;;;3.00;99.90;;;;;;4963425;28;20226;-85
2021/01/09 12:08:14;;;;;;;23.80;15.25;;;3.00;99.90;;;;;;4976035;28;20213;-86
2021/01/09 12:10:43;;;;;;;25.80;14.73;;;3.20;99.90;;;;;;4974970;28;20545;-87
2021/01/09 12:13:09;;;;;;;26.42;15.20;;;3.10;99.90;;;;;;4975906;28;20433;-87
2021/01/09 12:15:37;;;;;;;29.58;14.88;;;3.20;99.90;;;;;;4975085;28;20263;-85
2021/01/09 12:18:03;;;;;;;24.87;15.10;;;3.00;99.90;;;;;;4974825;28;20305;-86
2021/01/09 12:20:31;;;;;;;25.93;15.73;;;3.20;99.90;;;;;;4966548;28;20439;-86
2021/01/09 12:23:04;;;;;;;28.02;14.68;;;3.10;99.90;;;;;;4954797;28;20513;-86
2021/01/09 12:25:35;;;;;;;23.77;14.55;;;3.50;99.90;;;;;;4973405;28;20211;-86
2021/01/09 12:28:01;;;;;;;23.40;14.40;;;3.10;99.90;;;;;;4967936;28;20192;-86
2021/01/09 12:30:27;;;;;;;24.45;14.25;;;3.10;99.90;;;;;;4973780;28;20186;-84
2021/01/09 12:32:56;;;;;;;20.70;13.55;;;3.00;99.90;;;;;;4966490;28;20671;-84
2021/01/09 12:35:26;;;;;;;22.10;14.18;;;3.00;99.90;;;;;;4948974;28;20187;-84
2021/01/09 12:37:53;;;;;;;24.98;14.27;;;3.10;99.90;;;;;;4941146;28;20188;-83
2021/01/09 12:40:21;;;;;;;17.42;12.50;;;3.40;99.90;;;;;;4973797;28;20214;-84
2021/01/09 12:42:48;;;;;;;19.48;13.00;;;3.20;99.90;;;;;;4946383;28;20528;-84
2021/01/09 12:45:14;;;;;;;16.45;11.93;;;3.30;99.90;;;;;;4967416;28;20207;-84
2021/01/09 12:47:44;;;;;;;16.77;12.23;;;3.50;99.90;;;;;;4932060;28;20198;-84
2021/01/09 12:50:10;;;;;;;20.75;13.27;;;3.30;99.90;;;;;;4963669;28;20218;-84
2021/01/09 12:52:36;;;;;;;16.77;13.02;;;3.40;99.90;;;;;;4965472;28;20284;-83
2021/01/09 12:55:03;;;;;;;21.23;12.75;;;3.40;99.90;;;;;;4953481;28;20188;-84
2021/01/09 12:57:33;;;;;;;22.55;14.18;;;3.30;99.90;;;;;;4959422;28;20543;-84